메인 페이지
METAR-TAF:

METAR-TAF

공항 :

마이애미 국제공항

마이애미, 플로리다, 미국

위도: 25-47-26N, 경도: 080-18-59W, 고도: 3m

현재 날씨관측

예보는 41분 전, 14:53시(UTC)에 발표되었습니다.
남남동8kt
온도 27°C
습도 74%
기압 1022 hPa
시정: 16.1km
고도 1700ft 상공 구름 많음
고도 2400ft 상공 구름 많음
고도 4000ft 상공 구름 많음

METAR: KMIA 111453Z 15008KT 10SM BKN017 BKN024 BKN040 27/22 A3019 RMK AO2 SLP223 T02720222 51015

시각: 10:34 (15:34 UTC)

예보

예보는 39분 전, 14:55시(UTC)에 발표되었습니다.
예보 대상 시간: 11일 15시부터 12일 18시까지 (UTC)
남남동9kt
시정: 10km
고도 2500ft 상공 구름 많음
고도 4000ft 상공 구름 많음
시계 내 소나기
12일 0000시부터 (UTC)
북동7kt
시정: 10km
고도 2500ft 상공 구름 보통
고도 4000ft 상공 구름 많음
시계 내 소나기

TAF: KMIA 111455Z 1115/1218 15009KT P6SM VCSH BKN025 BKN040 FM120000 05007KT P6SM VCSH SCT025 BKN040

4,000개 이상의 공항 관측 자료 및 예보 (METAR 및 TAF 보고).

지도상에서 검색 가능한 기상관측소가 노란 점과 빨간 점으로 표시되어 있습니다.

기상관측소 명을 보려면 표시 위로 마우스를 이동하세요.

날씨 관측과 예보를 보려면 클릭하세요.

지도 변경 : 확대하려면 엑스 표시가 있는 녹색 버튼, 축소하려면 빼기 표시가 있는 녹색 버튼, 다음 페이지의 지도를 보려면 녹색 화살표를 클릭하세요.


METAR-TAF: